sensor_id;sensor_type;location;lat;lon;timestamp;P1;durP1;ratioP1;P2;durP2;ratioP2
4885;SDS011;2457;51.788;6.136;2024-01-30T00:02:16;8.23;;;4.70;;
4885;SDS011;2457;51.788;6.136;2024-01-30T00:04:43;8.17;;;4.90;;
4885;SDS011;2457;51.788;6.136;2024-01-30T00:07:10;8.10;;;4.83;;
4885;SDS011;2457;51.788;6.136;2024-01-30T00:09:37;8.90;;;4.60;;
4885;SDS011;2457;51.788;6.136;2024-01-30T00:12:06;7.60;;;4.80;;
4885;SDS011;2457;51.788;6.136;2024-01-30T00:14:34;8.87;;;4.80;;
4885;SDS011;2457;51.788;6.136;2024-01-30T00:17:01;7.10;;;4.50;;
4885;SDS011;2457;51.788;6.136;2024-01-30T00:19:28;8.97;;;4.70;;
4885;SDS011;2457;51.788;6.136;2024-01-30T00:21:55;10.00;;;4.50;;
4885;SDS011;2457;51.788;6.136;2024-01-30T00:24:23;8.37;;;4.40;;
4885;SDS011;2457;51.788;6.136;2024-01-30T00:26:50;8.57;;;4.10;;
4885;SDS011;2457;51.788;6.136;2024-01-30T00:29:18;9.67;;;5.17;;
4885;SDS011;2457;51.788;6.136;2024-01-30T00:31:46;8.60;;;5.27;;
4885;SDS011;2457;51.788;6.136;2024-01-30T00:34:13;11.67;;;5.77;;
4885;SDS011;2457;51.788;6.136;2024-01-30T00:36:40;9.10;;;4.13;;
4885;SDS011;2457;51.788;6.136;2024-01-30T00:39:08;6.30;;;4.00;;
4885;SDS011;2457;51.788;6.136;2024-01-30T00:41:35;9.03;;;4.80;;
4885;SDS011;2457;51.788;6.136;2024-01-30T00:44:03;8.40;;;4.60;;
4885;SDS011;2457;51.788;6.136;2024-01-30T00:46:30;8.67;;;4.87;;
4885;SDS011;2457;51.788;6.136;2024-01-30T00:48:57;9.93;;;5.00;;
4885;SDS011;2457;51.788;6.136;2024-01-30T00:51:25;11.43;;;4.70;;
4885;SDS011;2457;51.788;6.136;2024-01-30T00:53:52;8.20;;;4.50;;
4885;SDS011;2457;51.788;6.136;2024-01-30T00:56:19;10.10;;;4.53;;
4885;SDS011;2457;51.788;6.136;2024-01-30T00:58:46;7.00;;;3.83;;
4885;SDS011;2457;51.788;6.136;2024-01-30T01:01:14;8.50;;;4.80;;
4885;SDS011;2457;51.788;6.136;2024-01-30T01:03:41;10.00;;;5.30;;
4885;SDS011;2457;51.788;6.136;2024-01-30T01:06:10;7.83;;;4.67;;
4885;SDS011;2457;51.788;6.136;2024-01-30T01:08:37;11.30;;;5.33;;
4885;SDS011;2457;51.788;6.136;2024-01-30T01:11:04;9.10;;;4.13;;
4885;SDS011;2457;51.788;6.136;2024-01-30T01:13:31;8.03;;;4.37;;
4885;SDS011;2457;51.788;6.136;2024-01-30T01:15:59;8.00;;;4.60;;
4885;SDS011;2457;51.788;6.136;2024-01-30T01:18:26;9.90;;;5.13;;
4885;SDS011;2457;51.788;6.136;2024-01-30T01:20:53;9.23;;;4.40;;
4885;SDS011;2457;51.788;6.136;2024-01-30T01:23:20;7.87;;;4.40;;
4885;SDS011;2457;51.788;6.136;2024-01-30T01:25:48;8.10;;;4.53;;
4885;SDS011;2457;51.788;6.136;2024-01-30T01:28:15;12.03;;;4.73;;
4885;SDS011;2457;51.788;6.136;2024-01-30T01:30:42;8.23;;;4.53;;
4885;SDS011;2457;51.788;6.136;2024-01-30T01:33:10;12.17;;;4.50;;
4885;SDS011;2457;51.788;6.136;2024-01-30T01:35:39;8.13;;;4.33;;
4885;SDS011;2457;51.788;6.136;2024-01-30T01:38:06;8.87;;;4.80;;
4885;SDS011;2457;51.788;6.136;2024-01-30T01:40:33;9.20;;;4.70;;
4885;SDS011;2457;51.788;6.136;2024-01-30T01:43:03;8.23;;;4.83;;
4885;SDS011;2457;51.788;6.136;2024-01-30T01:45:30;8.37;;;4.77;;
4885;SDS011;2457;51.788;6.136;2024-01-30T01:47:57;9.63;;;4.87;;
4885;SDS011;2457;51.788;6.136;2024-01-30T01:50:24;10.00;;;4.17;;
4885;SDS011;2457;51.788;6.136;2024-01-30T01:52:52;12.00;;;4.83;;
4885;SDS011;2457;51.788;6.136;2024-01-30T01:55:21;7.70;;;4.17;;
4885;SDS011;2457;51.788;6.136;2024-01-30T01:57:50;9.80;;;5.03;;
4885;SDS011;2457;51.788;6.136;2024-01-30T02:00:18;10.00;;;4.63;;
4885;SDS011;2457;51.788;6.136;2024-01-30T02:02:46;6.73;;;4.17;;
4885;SDS011;2457;51.788;6.136;2024-01-30T02:05:14;8.47;;;4.37;;
4885;SDS011;2457;51.788;6.136;2024-01-30T02:07:42;8.50;;;4.53;;
4885;SDS011;2457;51.788;6.136;2024-01-30T02:10:09;9.73;;;4.83;;
4885;SDS011;2457;51.788;6.136;2024-01-30T02:12:36;12.87;;;4.67;;
4885;SDS011;2457;51.788;6.136;2024-01-30T02:15:04;12.10;;;4.87;;
4885;SDS011;2457;51.788;6.136;2024-01-30T02:17:33;11.67;;;4.97;;
4885;SDS011;2457;51.788;6.136;2024-01-30T02:20:01;7.70;;;4.67;;
4885;SDS011;2457;51.788;6.136;2024-01-30T02:22:29;8.70;;;4.37;;
4885;SDS011;2457;51.788;6.136;2024-01-30T02:24:56;12.17;;;5.20;;
4885;SDS011;2457;51.788;6.136;2024-01-30T02:27:24;8.27;;;4.93;;
4885;SDS011;2457;51.788;6.136;2024-01-30T02:29:51;15.93;;;4.87;;
4885;SDS011;2457;51.788;6.136;2024-01-30T02:32:19;10.53;;;4.87;;
4885;SDS011;2457;51.788;6.136;2024-01-30T02:34:46;8.10;;;4.80;;
4885;SDS011;2457;51.788;6.136;2024-01-30T02:37:13;10.63;;;4.50;;
4885;SDS011;2457;51.788;6.136;2024-01-30T02:39:40;7.10;;;4.40;;
4885;SDS011;2457;51.788;6.136;2024-01-30T02:42:08;11.17;;;4.37;;
4885;SDS011;2457;51.788;6.136;2024-01-30T02:44:35;10.37;;;4.87;;
4885;SDS011;2457;51.788;6.136;2024-01-30T02:47:02;11.50;;;5.03;;
4885;SDS011;2457;51.788;6.136;2024-01-30T02:49:29;8.23;;;4.70;;
4885;SDS011;2457;51.788;6.136;2024-01-30T02:51:57;7.90;;;4.40;;
4885;SDS011;2457;51.788;6.136;2024-01-30T02:54:24;9.53;;;4.97;;
4885;SDS011;2457;51.788;6.136;2024-01-30T02:56:51;8.80;;;4.70;;
4885;SDS011;2457;51.788;6.136;2024-01-30T02:59:18;8.47;;;4.73;;
4885;SDS011;2457;51.788;6.136;2024-01-30T03:01:46;9.20;;;4.30;;
4885;SDS011;2457;51.788;6.136;2024-01-30T03:04:14;12.37;;;5.13;;
4885;SDS011;2457;51.788;6.136;2024-01-30T03:06:47;10.63;;;4.57;;
4885;SDS011;2457;51.788;6.136;2024-01-30T03:09:15;9.07;;;4.60;;
4885;SDS011;2457;51.788;6.136;2024-01-30T03:11:43;10.27;;;4.77;;
4885;SDS011;2457;51.788;6.136;2024-01-30T03:14:11;7.70;;;4.83;;
4885;SDS011;2457;51.788;6.136;2024-01-30T03:16:38;7.53;;;4.13;;
4885;SDS011;2457;51.788;6.136;2024-01-30T03:19:06;8.00;;;4.33;;
4885;SDS011;2457;51.788;6.136;2024-01-30T03:21:35;12.07;;;4.70;;
4885;SDS011;2457;51.788;6.136;2024-01-30T03:24:02;9.97;;;4.40;;
4885;SDS011;2457;51.788;6.136;2024-01-30T03:26:29;10.63;;;4.33;;
4885;SDS011;2457;51.788;6.136;2024-01-30T03:28:57;10.10;;;4.67;;
4885;SDS011;2457;51.788;6.136;2024-01-30T03:31:24;10.47;;;5.10;;
4885;SDS011;2457;51.788;6.136;2024-01-30T03:33:51;9.03;;;4.30;;
4885;SDS011;2457;51.788;6.136;2024-01-30T03:36:19;8.67;;;4.53;;
4885;SDS011;2457;51.788;6.136;2024-01-30T03:38:46;7.60;;;4.07;;
4885;SDS011;2457;51.788;6.136;2024-01-30T03:41:14;13.73;;;4.30;;
4885;SDS011;2457;51.788;6.136;2024-01-30T03:43:41;8.57;;;4.03;;
4885;SDS011;2457;51.788;6.136;2024-01-30T03:46:08;8.80;;;4.53;;
4885;SDS011;2457;51.788;6.136;2024-01-30T03:48:35;10.13;;;4.77;;
4885;SDS011;2457;51.788;6.136;2024-01-30T03:51:03;8.10;;;4.57;;
4885;SDS011;2457;51.788;6.136;2024-01-30T03:53:30;9.33;;;4.10;;
4885;SDS011;2457;51.788;6.136;2024-01-30T03:55:58;20.53;;;5.70;;
4885;SDS011;2457;51.788;6.136;2024-01-30T03:58:25;12.80;;;4.90;;
4885;SDS011;2457;51.788;6.136;2024-01-30T04:00:52;9.97;;;4.47;;
4885;SDS011;2457;51.788;6.136;2024-01-30T04:03:19;8.87;;;4.70;;
4885;SDS011;2457;51.788;6.136;2024-01-30T04:05:46;6.87;;;4.30;;
4885;SDS011;2457;51.788;6.136;2024-01-30T04:08:14;8.77;;;4.70;;
4885;SDS011;2457;51.788;6.136;2024-01-30T04:10:41;9.50;;;5.10;;
4885;SDS011;2457;51.788;6.136;2024-01-30T04:13:08;9.47;;;4.43;;
4885;SDS011;2457;51.788;6.136;2024-01-30T04:15:36;10.90;;;4.23;;
4885;SDS011;2457;51.788;6.136;2024-01-30T04:18:03;8.70;;;4.90;;
4885;SDS011;2457;51.788;6.136;2024-01-30T04:20:30;9.93;;;5.00;;
4885;SDS011;2457;51.788;6.136;2024-01-30T04:22:57;9.17;;;4.50;;
4885;SDS011;2457;51.788;6.136;2024-01-30T04:25:25;8.17;;;4.93;;
4885;SDS011;2457;51.788;6.136;2024-01-30T04:27:52;7.40;;;4.43;;
4885;SDS011;2457;51.788;6.136;2024-01-30T04:30:19;12.67;;;5.00;;
4885;SDS011;2457;51.788;6.136;2024-01-30T04:32:46;12.40;;;5.20;;
4885;SDS011;2457;51.788;6.136;2024-01-30T04:35:14;10.27;;;5.07;;
4885;SDS011;2457;51.788;6.136;2024-01-30T04:37:41;6.43;;;3.50;;
4885;SDS011;2457;51.788;6.136;2024-01-30T04:40:08;10.37;;;4.23;;
4885;SDS011;2457;51.788;6.136;2024-01-30T04:42:36;9.70;;;4.33;;
4885;SDS011;2457;51.788;6.136;2024-01-30T04:45:03;8.70;;;4.47;;
4885;SDS011;2457;51.788;6.136;2024-01-30T04:47:30;7.60;;;4.23;;
4885;SDS011;2457;51.788;6.136;2024-01-30T04:49:57;9.30;;;4.23;;
4885;SDS011;2457;51.788;6.136;2024-01-30T04:52:25;7.00;;;4.07;;
4885;SDS011;2457;51.788;6.136;2024-01-30T04:54:52;7.50;;;3.93;;
4885;SDS011;2457;51.788;6.136;2024-01-30T04:57:19;8.93;;;4.10;;
4885;SDS011;2457;51.788;6.136;2024-01-30T04:59:46;8.87;;;4.30;;
4885;SDS011;2457;51.788;6.136;2024-01-30T05:02:14;5.90;;;3.40;;
4885;SDS011;2457;51.788;6.136;2024-01-30T05:04:42;7.80;;;3.83;;
4885;SDS011;2457;51.788;6.136;2024-01-30T05:07:09;9.40;;;4.20;;
4885;SDS011;2457;51.788;6.136;2024-01-30T05:09:36;8.33;;;4.00;;
4885;SDS011;2457;51.788;6.136;2024-01-30T05:12:03;8.80;;;4.37;;
4885;SDS011;2457;51.788;6.136;2024-01-30T05:14:31;5.27;;;3.50;;
4885;SDS011;2457;51.788;6.136;2024-01-30T05:16:58;9.10;;;4.07;;
4885;SDS011;2457;51.788;6.136;2024-01-30T05:19:25;8.43;;;4.40;;
4885;SDS011;2457;51.788;6.136;2024-01-30T05:21:52;7.13;;;3.57;;
4885;SDS011;2457;51.788;6.136;2024-01-30T05:24:20;7.97;;;3.50;;
4885;SDS011;2457;51.788;6.136;2024-01-30T05:26:47;8.07;;;3.20;;
4885;SDS011;2457;51.788;6.136;2024-01-30T05:29:14;9.67;;;4.27;;
4885;SDS011;2457;51.788;6.136;2024-01-30T05:31:41;6.57;;;4.07;;
4885;SDS011;2457;51.788;6.136;2024-01-30T05:34:09;8.10;;;3.73;;
4885;SDS011;2457;51.788;6.136;2024-01-30T05:36:36;7.73;;;3.77;;
4885;SDS011;2457;51.788;6.136;2024-01-30T05:39:03;7.10;;;3.90;;
4885;SDS011;2457;51.788;6.136;2024-01-30T05:41:31;5.90;;;3.30;;
4885;SDS011;2457;51.788;6.136;2024-01-30T05:43:58;8.30;;;4.00;;
4885;SDS011;2457;51.788;6.136;2024-01-30T05:46:26;15.90;;;4.10;;
4885;SDS011;2457;51.788;6.136;2024-01-30T05:48:53;7.17;;;3.97;;
4885;SDS011;2457;51.788;6.136;2024-01-30T05:51:20;6.60;;;3.77;;
4885;SDS011;2457;51.788;6.136;2024-01-30T05:53:47;9.23;;;4.37;;
4885;SDS011;2457;51.788;6.136;2024-01-30T05:56:15;6.67;;;3.60;;
4885;SDS011;2457;51.788;6.136;2024-01-30T05:58:42;7.70;;;3.50;;
4885;SDS011;2457;51.788;6.136;2024-01-30T06:01:09;5.53;;;3.10;;
4885;SDS011;2457;51.788;6.136;2024-01-30T06:03:36;7.23;;;3.60;;
4885;SDS011;2457;51.788;6.136;2024-01-30T06:06:05;7.13;;;3.83;;
4885;SDS011;2457;51.788;6.136;2024-01-30T06:08:32;12.67;;;3.87;;
4885;SDS011;2457;51.788;6.136;2024-01-30T06:10:59;6.23;;;3.20;;
4885;SDS011;2457;51.788;6.136;2024-01-30T06:13:27;6.47;;;2.80;;
4885;SDS011;2457;51.788;6.136;2024-01-30T06:15:56;10.10;;;3.47;;
4885;SDS011;2457;51.788;6.136;2024-01-30T06:21:10;9.60;;;3.53;;
4885;SDS011;2457;51.788;6.136;2024-01-30T06:23:37;8.77;;;3.77;;
4885;SDS011;2457;51.788;6.136;2024-01-30T06:26:06;6.20;;;3.57;;
4885;SDS011;2457;51.788;6.136;2024-01-30T06:28:34;7.30;;;4.30;;
4885;SDS011;2457;51.788;6.136;2024-01-30T06:31:01;8.73;;;3.93;;
4885;SDS011;2457;51.788;6.136;2024-01-30T06:33:29;7.30;;;3.70;;
4885;SDS011;2457;51.788;6.136;2024-01-30T06:35:56;8.43;;;4.00;;
4885;SDS011;2457;51.788;6.136;2024-01-30T06:38:24;7.03;;;4.07;;
4885;SDS011;2457;51.788;6.136;2024-01-30T06:40:51;8.43;;;3.80;;
4885;SDS011;2457;51.788;6.136;2024-01-30T06:43:19;10.23;;;3.87;;
4885;SDS011;2457;51.788;6.136;2024-01-30T06:45:46;7.13;;;3.47;;
4885;SDS011;2457;51.788;6.136;2024-01-30T06:48:14;7.50;;;3.77;;
4885;SDS011;2457;51.788;6.136;2024-01-30T06:50:41;6.50;;;3.50;;
4885;SDS011;2457;51.788;6.136;2024-01-30T06:53:08;6.57;;;3.60;;
4885;SDS011;2457;51.788;6.136;2024-01-30T06:55:36;8.60;;;4.00;;
4885;SDS011;2457;51.788;6.136;2024-01-30T06:58:03;9.50;;;4.33;;
4885;SDS011;2457;51.788;6.136;2024-01-30T07:00:31;8.60;;;3.43;;
4885;SDS011;2457;51.788;6.136;2024-01-30T07:02:59;6.30;;;3.47;;
4885;SDS011;2457;51.788;6.136;2024-01-30T07:05:26;9.13;;;3.90;;
4885;SDS011;2457;51.788;6.136;2024-01-30T07:07:54;6.80;;;3.43;;
4885;SDS011;2457;51.788;6.136;2024-01-30T07:10:22;9.60;;;4.23;;
4885;SDS011;2457;51.788;6.136;2024-01-30T07:12:50;7.83;;;3.40;;
4885;SDS011;2457;51.788;6.136;2024-01-30T07:15:19;7.17;;;3.90;;
4885;SDS011;2457;51.788;6.136;2024-01-30T07:17:46;8.47;;;3.60;;
4885;SDS011;2457;51.788;6.136;2024-01-30T07:20:14;10.40;;;4.83;;
4885;SDS011;2457;51.788;6.136;2024-01-30T07:22:41;6.67;;;3.63;;
4885;SDS011;2457;51.788;6.136;2024-01-30T07:25:09;7.80;;;4.17;;
4885;SDS011;2457;51.788;6.136;2024-01-30T07:27:36;7.37;;;3.80;;
4885;SDS011;2457;51.788;6.136;2024-01-30T07:30:04;6.60;;;4.07;;
4885;SDS011;2457;51.788;6.136;2024-01-30T07:32:31;5.67;;;3.33;;
4885;SDS011;2457;51.788;6.136;2024-01-30T07:34:59;7.73;;;4.10;;
4885;SDS011;2457;51.788;6.136;2024-01-30T07:37:26;6.87;;;3.80;;
4885;SDS011;2457;51.788;6.136;2024-01-30T07:39:55;6.37;;;3.50;;
4885;SDS011;2457;51.788;6.136;2024-01-30T07:42:22;7.80;;;2.80;;
4885;SDS011;2457;51.788;6.136;2024-01-30T07:44:49;6.77;;;3.50;;
4885;SDS011;2457;51.788;6.136;2024-01-30T07:47:17;7.40;;;3.03;;
4885;SDS011;2457;51.788;6.136;2024-01-30T07:49:44;9.40;;;3.37;;
4885;SDS011;2457;51.788;6.136;2024-01-30T07:52:12;10.60;;;4.50;;
4885;SDS011;2457;51.788;6.136;2024-01-30T07:54:39;7.70;;;3.53;;
4885;SDS011;2457;51.788;6.136;2024-01-30T07:57:06;9.20;;;3.40;;
4885;SDS011;2457;51.788;6.136;2024-01-30T07:59:34;6.00;;;3.50;;
4885;SDS011;2457;51.788;6.136;2024-01-30T08:02:01;6.53;;;3.43;;
4885;SDS011;2457;51.788;6.136;2024-01-30T08:04:29;6.93;;;3.73;;
4885;SDS011;2457;51.788;6.136;2024-01-30T08:06:56;5.73;;;3.23;;
4885;SDS011;2457;51.788;6.136;2024-01-30T08:09:23;6.77;;;3.77;;
4885;SDS011;2457;51.788;6.136;2024-01-30T08:11:51;7.30;;;4.17;;
4885;SDS011;2457;51.788;6.136;2024-01-30T08:14:18;6.47;;;3.20;;
4885;SDS011;2457;51.788;6.136;2024-01-30T08:16:46;8.93;;;3.97;;
4885;SDS011;2457;51.788;6.136;2024-01-30T08:19:14;9.10;;;3.80;;
4885;SDS011;2457;51.788;6.136;2024-01-30T08:21:41;7.60;;;3.70;;
4885;SDS011;2457;51.788;6.136;2024-01-30T08:24:09;7.97;;;4.23;;
4885;SDS011;2457;51.788;6.136;2024-01-30T08:26:36;9.33;;;3.53;;
4885;SDS011;2457;51.788;6.136;2024-01-30T08:29:04;12.63;;;4.17;;
4885;SDS011;2457;51.788;6.136;2024-01-30T08:31:31;7.20;;;4.27;;
4885;SDS011;2457;51.788;6.136;2024-01-30T08:33:59;7.17;;;4.90;;
4885;SDS011;2457;51.788;6.136;2024-01-30T08:36:26;10.53;;;3.33;;
4885;SDS011;2457;51.788;6.136;2024-01-30T08:38:54;7.33;;;3.63;;
4885;SDS011;2457;51.788;6.136;2024-01-30T08:41:21;10.27;;;4.80;;
4885;SDS011;2457;51.788;6.136;2024-01-30T08:43:48;8.27;;;4.27;;
4885;SDS011;2457;51.788;6.136;2024-01-30T08:46:19;11.43;;;4.20;;
4885;SDS011;2457;51.788;6.136;2024-01-30T08:48:46;8.43;;;3.77;;
4885;SDS011;2457;51.788;6.136;2024-01-30T08:51:14;10.00;;;4.37;;
4885;SDS011;2457;51.788;6.136;2024-01-30T08:53:41;7.53;;;3.50;;
4885;SDS011;2457;51.788;6.136;2024-01-30T08:56:09;5.57;;;3.20;;
4885;SDS011;2457;51.788;6.136;2024-01-30T08:58:37;7.83;;;3.70;;
4885;SDS011;2457;51.788;6.136;2024-01-30T09:01:04;11.37;;;3.93;;
4885;SDS011;2457;51.788;6.136;2024-01-30T09:03:32;6.23;;;3.13;;
4885;SDS011;2457;51.788;6.136;2024-01-30T09:06:00;7.00;;;3.70;;
4885;SDS011;2457;51.788;6.136;2024-01-30T09:08:28;8.10;;;3.70;;
4885;SDS011;2457;51.788;6.136;2024-01-30T09:10:55;5.40;;;3.03;;
4885;SDS011;2457;51.788;6.136;2024-01-30T09:13:22;7.73;;;3.63;;
4885;SDS011;2457;51.788;6.136;2024-01-30T09:15:50;10.23;;;3.60;;
4885;SDS011;2457;51.788;6.136;2024-01-30T09:18:17;6.97;;;4.00;;
4885;SDS011;2457;51.788;6.136;2024-01-30T09:20:45;9.37;;;4.03;;
4885;SDS011;2457;51.788;6.136;2024-01-30T09:23:13;10.87;;;4.67;;
4885;SDS011;2457;51.788;6.136;2024-01-30T09:25:41;10.97;;;4.63;;
4885;SDS011;2457;51.788;6.136;2024-01-30T09:28:08;7.77;;;4.17;;
4885;SDS011;2457;51.788;6.136;2024-01-30T09:30:40;8.70;;;4.40;;
4885;SDS011;2457;51.788;6.136;2024-01-30T09:33:05;7.60;;;3.73;;
4885;SDS011;2457;51.788;6.136;2024-01-30T09:35:32;6.97;;;3.43;;
4885;SDS011;2457;51.788;6.136;2024-01-30T09:38:00;6.60;;;3.77;;
4885;SDS011;2457;51.788;6.136;2024-01-30T09:40:27;8.63;;;4.50;;
4885;SDS011;2457;51.788;6.136;2024-01-30T09:42:55;12.37;;;3.80;;
4885;SDS011;2457;51.788;6.136;2024-01-30T09:45:23;5.83;;;3.40;;
4885;SDS011;2457;51.788;6.136;2024-01-30T09:47:54;7.80;;;3.77;;
4885;SDS011;2457;51.788;6.136;2024-01-30T09:50:21;7.50;;;4.03;;
4885;SDS011;2457;51.788;6.136;2024-01-30T09:52:50;8.97;;;3.70;;
4885;SDS011;2457;51.788;6.136;2024-01-30T09:55:18;8.70;;;4.13;;
4885;SDS011;2457;51.788;6.136;2024-01-30T09:57:50;6.70;;;4.20;;
4885;SDS011;2457;51.788;6.136;2024-01-30T10:00:14;8.47;;;3.60;;
4885;SDS011;2457;51.788;6.136;2024-01-30T10:02:42;7.40;;;3.87;;
4885;SDS011;2457;51.788;6.136;2024-01-30T10:05:10;7.53;;;3.97;;
4885;SDS011;2457;51.788;6.136;2024-01-30T10:07:38;12.93;;;4.10;;
4885;SDS011;2457;51.788;6.136;2024-01-30T10:10:06;10.00;;;4.30;;
4885;SDS011;2457;51.788;6.136;2024-01-30T10:12:34;8.70;;;4.60;;
4885;SDS011;2457;51.788;6.136;2024-01-30T10:15:01;6.77;;;3.37;;
4885;SDS011;2457;51.788;6.136;2024-01-30T10:17:29;8.53;;;4.10;;
4885;SDS011;2457;51.788;6.136;2024-01-30T10:19:57;7.67;;;3.67;;
4885;SDS011;2457;51.788;6.136;2024-01-30T10:22:24;10.03;;;4.23;;
4885;SDS011;2457;51.788;6.136;2024-01-30T10:24:52;11.17;;;4.47;;
4885;SDS011;2457;51.788;6.136;2024-01-30T10:27:23;8.33;;;3.90;;
4885;SDS011;2457;51.788;6.136;2024-01-30T10:29:48;7.73;;;4.50;;
4885;SDS011;2457;51.788;6.136;2024-01-30T10:32:15;7.80;;;4.40;;
4885;SDS011;2457;51.788;6.136;2024-01-30T10:34:44;10.87;;;4.70;;
4885;SDS011;2457;51.788;6.136;2024-01-30T10:37:11;7.57;;;4.40;;
4885;SDS011;2457;51.788;6.136;2024-01-30T10:39:43;12.20;;;4.53;;
4885;SDS011;2457;51.788;6.136;2024-01-30T10:42:13;8.50;;;4.27;;
4885;SDS011;2457;51.788;6.136;2024-01-30T10:44:48;8.60;;;3.90;;
4885;SDS011;2457;51.788;6.136;2024-01-30T10:47:13;10.07;;;3.70;;
4885;SDS011;2457;51.788;6.136;2024-01-30T10:49:41;7.87;;;4.13;;
4885;SDS011;2457;51.788;6.136;2024-01-30T10:52:09;9.73;;;4.57;;
4885;SDS011;2457;51.788;6.136;2024-01-30T10:54:37;9.00;;;4.63;;
4885;SDS011;2457;51.788;6.136;2024-01-30T10:57:06;9.13;;;4.23;;
4885;SDS011;2457;51.788;6.136;2024-01-30T10:59:35;8.93;;;4.70;;
4885;SDS011;2457;51.788;6.136;2024-01-30T11:02:02;9.43;;;3.70;;
4885;SDS011;2457;51.788;6.136;2024-01-30T11:04:36;7.63;;;3.93;;
4885;SDS011;2457;51.788;6.136;2024-01-30T11:07:14;7.10;;;3.37;;
4885;SDS011;2457;51.788;6.136;2024-01-30T11:09:51;10.63;;;3.60;;
4885;SDS011;2457;51.788;6.136;2024-01-30T11:12:23;8.63;;;3.77;;
4885;SDS011;2457;51.788;6.136;2024-01-30T11:15:09;7.70;;;4.20;;
4885;SDS011;2457;51.788;6.136;2024-01-30T11:17:40;9.60;;;3.70;;
4885;SDS011;2457;51.788;6.136;2024-01-30T11:20:12;7.70;;;3.67;;
4885;SDS011;2457;51.788;6.136;2024-01-30T11:22:39;10.00;;;4.33;;
4885;SDS011;2457;51.788;6.136;2024-01-30T11:25:16;8.60;;;3.93;;
4885;SDS011;2457;51.788;6.136;2024-01-30T11:27:35;6.83;;;3.80;;
4885;SDS011;2457;51.788;6.136;2024-01-30T11:30:03;9.13;;;4.10;;
4885;SDS011;2457;51.788;6.136;2024-01-30T11:32:30;7.57;;;4.10;;
4885;SDS011;2457;51.788;6.136;2024-01-30T11:34:58;8.87;;;4.10;;
4885;SDS011;2457;51.788;6.136;2024-01-30T11:37:25;12.23;;;4.13;;
4885;SDS011;2457;51.788;6.136;2024-01-30T11:39:54;8.80;;;4.10;;
4885;SDS011;2457;51.788;6.136;2024-01-30T11:42:23;9.33;;;4.03;;
4885;SDS011;2457;51.788;6.136;2024-01-30T11:44:52;14.83;;;3.87;;
4885;SDS011;2457;51.788;6.136;2024-01-30T11:47:19;8.47;;;4.40;;
4885;SDS011;2457;51.788;6.136;2024-01-30T11:49:47;9.37;;;3.90;;
4885;SDS011;2457;51.788;6.136;2024-01-30T11:52:14;12.80;;;4.50;;
4885;SDS011;2457;51.788;6.136;2024-01-30T11:54:43;12.00;;;4.50;;
4885;SDS011;2457;51.788;6.136;2024-01-30T11:57:10;8.73;;;3.90;;
4885;SDS011;2457;51.788;6.136;2024-01-30T11:59:38;10.73;;;4.30;;
4885;SDS011;2457;51.788;6.136;2024-01-30T12:02:05;8.50;;;4.77;;
4885;SDS011;2457;51.788;6.136;2024-01-30T12:04:33;10.17;;;3.90;;
4885;SDS011;2457;51.788;6.136;2024-01-30T12:07:00;10.37;;;3.93;;
4885;SDS011;2457;51.788;6.136;2024-01-30T12:09:27;7.53;;;3.90;;
4885;SDS011;2457;51.788;6.136;2024-01-30T12:11:55;9.43;;;4.10;;
4885;SDS011;2457;51.788;6.136;2024-01-30T12:14:22;8.17;;;3.70;;
4885;SDS011;2457;51.788;6.136;2024-01-30T12:16:51;9.17;;;4.27;;
4885;SDS011;2457;51.788;6.136;2024-01-30T12:19:27;12.20;;;4.30;;
4885;SDS011;2457;51.788;6.136;2024-01-30T12:21:54;9.77;;;4.30;;
4885;SDS011;2457;51.788;6.136;2024-01-30T12:24:22;11.83;;;5.10;;
4885;SDS011;2457;51.788;6.136;2024-01-30T12:26:50;9.70;;;4.20;;
4885;SDS011;2457;51.788;6.136;2024-01-30T12:29:19;14.83;;;5.30;;
4885;SDS011;2457;51.788;6.136;2024-01-30T12:31:48;11.80;;;4.50;;
4885;SDS011;2457;51.788;6.136;2024-01-30T12:34:15;11.47;;;4.73;;
4885;SDS011;2457;51.788;6.136;2024-01-30T12:36:43;8.97;;;4.57;;
4885;SDS011;2457;51.788;6.136;2024-01-30T12:39:11;11.40;;;4.27;;
4885;SDS011;2457;51.788;6.136;2024-01-30T12:41:40;9.40;;;3.90;;
4885;SDS011;2457;51.788;6.136;2024-01-30T12:44:07;9.83;;;4.00;;
4885;SDS011;2457;51.788;6.136;2024-01-30T12:46:35;11.33;;;4.27;;
4885;SDS011;2457;51.788;6.136;2024-01-30T12:49:02;8.30;;;4.00;;
4885;SDS011;2457;51.788;6.136;2024-01-30T12:51:30;6.83;;;3.20;;
4885;SDS011;2457;51.788;6.136;2024-01-30T12:53:57;6.00;;;3.37;;
4885;SDS011;2457;51.788;6.136;2024-01-30T12:56:25;7.17;;;3.47;;
4885;SDS011;2457;51.788;6.136;2024-01-30T12:58:52;5.67;;;2.90;;
4885;SDS011;2457;51.788;6.136;2024-01-30T13:01:19;13.30;;;3.47;;
4885;SDS011;2457;51.788;6.136;2024-01-30T13:03:46;5.20;;;2.20;;
4885;SDS011;2457;51.788;6.136;2024-01-30T13:06:14;5.10;;;2.40;;
4885;SDS011;2457;51.788;6.136;2024-01-30T13:08:42;7.17;;;2.83;;
4885;SDS011;2457;51.788;6.136;2024-01-30T13:11:10;7.20;;;2.40;;
4885;SDS011;2457;51.788;6.136;2024-01-30T13:13:38;5.03;;;2.43;;
4885;SDS011;2457;51.788;6.136;2024-01-30T13:16:06;6.07;;;2.43;;
4885;SDS011;2457;51.788;6.136;2024-01-30T13:18:33;3.90;;;1.93;;
4885;SDS011;2457;51.788;6.136;2024-01-30T13:21:01;5.23;;;2.23;;
4885;SDS011;2457;51.788;6.136;2024-01-30T13:23:29;5.33;;;1.97;;
4885;SDS011;2457;51.788;6.136;2024-01-30T13:25:56;4.50;;;1.80;;
4885;SDS011;2457;51.788;6.136;2024-01-30T13:28:25;7.57;;;2.50;;
4885;SDS011;2457;51.788;6.136;2024-01-30T13:30:52;6.77;;;2.40;;
4885;SDS011;2457;51.788;6.136;2024-01-30T13:33:20;4.90;;;2.17;;
4885;SDS011;2457;51.788;6.136;2024-01-30T13:35:47;5.87;;;1.83;;
4885;SDS011;2457;51.788;6.136;2024-01-30T13:38:14;5.83;;;2.20;;
4885;SDS011;2457;51.788;6.136;2024-01-30T13:40:42;5.07;;;1.53;;
4885;SDS011;2457;51.788;6.136;2024-01-30T13:43:09;4.80;;;1.60;;
4885;SDS011;2457;51.788;6.136;2024-01-30T13:45:37;5.33;;;2.07;;
4885;SDS011;2457;51.788;6.136;2024-01-30T13:48:05;4.10;;;1.50;;
4885;SDS011;2457;51.788;6.136;2024-01-30T13:50:33;2.80;;;1.20;;
4885;SDS011;2457;51.788;6.136;2024-01-30T13:53:00;4.43;;;1.10;;
4885;SDS011;2457;51.788;6.136;2024-01-30T13:55:27;4.60;;;1.10;;
4885;SDS011;2457;51.788;6.136;2024-01-30T13:57:54;3.60;;;1.30;;
4885;SDS011;2457;51.788;6.136;2024-01-30T14:00:22;3.73;;;1.20;;
4885;SDS011;2457;51.788;6.136;2024-01-30T14:02:51;3.00;;;1.27;;
4885;SDS011;2457;51.788;6.136;2024-01-30T14:07:49;4.93;;;1.40;;
4885;SDS011;2457;51.788;6.136;2024-01-30T14:10:17;4.20;;;1.27;;
4885;SDS011;2457;51.788;6.136;2024-01-30T14:12:44;4.40;;;1.60;;
4885;SDS011;2457;51.788;6.136;2024-01-30T14:15:12;3.27;;;1.23;;
4885;SDS011;2457;51.788;6.136;2024-01-30T14:17:39;2.80;;;1.00;;
4885;SDS011;2457;51.788;6.136;2024-01-30T14:20:07;8.47;;;1.27;;
4885;SDS011;2457;51.788;6.136;2024-01-30T14:22:34;2.93;;;1.20;;
4885;SDS011;2457;51.788;6.136;2024-01-30T14:25:01;2.93;;;1.17;;
4885;SDS011;2457;51.788;6.136;2024-01-30T14:27:30;5.80;;;1.07;;
4885;SDS011;2457;51.788;6.136;2024-01-30T14:29:58;3.63;;;1.17;;
4885;SDS011;2457;51.788;6.136;2024-01-30T14:32:25;3.90;;;1.10;;
4885;SDS011;2457;51.788;6.136;2024-01-30T14:34:52;3.40;;;1.10;;
4885;SDS011;2457;51.788;6.136;2024-01-30T14:37:22;5.27;;;1.30;;
4885;SDS011;2457;51.788;6.136;2024-01-30T14:39:50;4.30;;;1.20;;
4885;SDS011;2457;51.788;6.136;2024-01-30T14:42:17;3.13;;;1.10;;
4885;SDS011;2457;51.788;6.136;2024-01-30T14:44:44;4.80;;;1.10;;
4885;SDS011;2457;51.788;6.136;2024-01-30T14:47:12;3.20;;;1.20;;
4885;SDS011;2457;51.788;6.136;2024-01-30T14:49:39;4.83;;;1.10;;
4885;SDS011;2457;51.788;6.136;2024-01-30T14:52:06;5.17;;;1.40;;
4885;SDS011;2457;51.788;6.136;2024-01-30T14:54:35;4.40;;;1.13;;
4885;SDS011;2457;51.788;6.136;2024-01-30T14:57:03;3.20;;;1.23;;
4885;SDS011;2457;51.788;6.136;2024-01-30T14:59:31;3.07;;;1.00;;
4885;SDS011;2457;51.788;6.136;2024-01-30T15:01:58;3.53;;;1.27;;
4885;SDS011;2457;51.788;6.136;2024-01-30T15:04:25;3.67;;;1.10;;
4885;SDS011;2457;51.788;6.136;2024-01-30T15:06:53;3.20;;;1.27;;
4885;SDS011;2457;51.788;6.136;2024-01-30T15:09:20;2.80;;;1.10;;
4885;SDS011;2457;51.788;6.136;2024-01-30T15:11:48;5.20;;;1.40;;
4885;SDS011;2457;51.788;6.136;2024-01-30T15:14:16;3.80;;;1.60;;
4885;SDS011;2457;51.788;6.136;2024-01-30T15:16:43;5.37;;;2.17;;
4885;SDS011;2457;51.788;6.136;2024-01-30T15:19:11;5.63;;;1.67;;
4885;SDS011;2457;51.788;6.136;2024-01-30T15:21:38;9.57;;;1.73;;